createdAt,value
2022-12-27T00:01:23.040Z,96.20
2022-12-27T00:06:22.960Z,95.78
2022-12-27T00:11:22.884Z,95.05
2022-12-27T00:16:22.921Z,96.20
2022-12-27T00:21:22.758Z,96.30
2022-12-27T00:26:22.752Z,96.72
2022-12-27T00:31:22.632Z,95.99
2022-12-27T00:36:22.573Z,96.51
2022-12-27T00:41:22.502Z,96.30
2022-12-27T00:46:22.463Z,96.09
2022-12-27T00:51:22.352Z,97.03
2022-12-27T00:56:22.309Z,96.45
2022-12-27T01:01:22.406Z,96.86
2022-12-27T01:06:34.425Z,96.55
2022-12-27T01:11:26.830Z,97.28
2022-12-27T01:16:27.513Z,96.76
2022-12-27T01:21:26.684Z,97.22
2022-12-27T01:26:26.625Z,97.53
2022-12-27T01:31:26.643Z,97.12
2022-12-27T01:36:26.514Z,97.07
2022-12-27T01:41:26.448Z,96.86
2022-12-27T01:46:26.347Z,96.45
2022-12-27T01:51:26.315Z,96.91
2022-12-27T01:56:26.233Z,97.12
2022-12-27T02:01:26.250Z,97.33
2022-12-27T02:06:26.107Z,97.33
2022-12-27T02:11:26.043Z,97.74
2022-12-27T02:16:25.989Z,97.85
2022-12-27T02:21:25.908Z,97.95
2022-12-27T02:26:25.829Z,97.85
2022-12-27T02:31:25.763Z,97.74
2022-12-27T02:36:25.695Z,97.53
2022-12-27T02:41:25.696Z,97.85
2022-12-27T02:46:25.597Z,97.95
2022-12-27T02:51:25.490Z,98.05
2022-12-27T02:56:25.417Z,98.47
2022-12-27T03:01:25.453Z,98.57
2022-12-27T03:06:25.292Z,98.26
2022-12-27T03:11:25.354Z,98.16
2022-12-27T03:16:25.196Z,98.57
2022-12-27T03:21:25.126Z,98.88
2022-12-27T03:26:25.056Z,98.88
2022-12-27T03:31:24.982Z,98.84
2022-12-27T03:36:24.908Z,98.94
2022-12-27T03:41:24.850Z,98.94
2022-12-27T03:46:24.792Z,98.74
2022-12-27T03:51:24.781Z,98.99
2022-12-27T03:56:24.684Z,99.15
2022-12-27T04:01:24.650Z,98.99
2022-12-27T04:06:24.518Z,99.51
2022-12-27T04:11:24.462Z,99.62
2022-12-27T04:16:24.392Z,99.82
2022-12-27T04:21:24.356Z,99.72
2022-12-27T04:26:24.259Z,99.99
2022-12-27T04:31:24.239Z,99.99
2022-12-27T04:36:24.129Z,99.99
2022-12-27T04:41:24.062Z,99.99
2022-12-27T04:46:24.031Z,99.99
2022-12-27T04:51:23.959Z,99.98
2022-12-27T04:56:23.849Z,99.99
2022-12-27T05:01:23.959Z,99.99
2022-12-27T05:06:23.702Z,99.99
2022-12-27T05:11:23.679Z,99.99
2022-12-27T05:16:31.181Z,99.99
2022-12-27T05:21:23.562Z,99.99
2022-12-27T05:26:23.539Z,99.99
2022-12-27T05:31:23.472Z,99.99
2022-12-27T05:36:23.380Z,99.99
2022-12-27T05:41:23.317Z,99.99
2022-12-27T05:46:23.347Z,99.99
2022-12-27T05:51:23.148Z,99.99
2022-12-27T05:56:23.111Z,99.99
2022-12-27T06:01:23.114Z,99.99
2022-12-27T06:06:22.978Z,99.99
2022-12-27T06:11:22.890Z,99.99
2022-12-27T06:16:22.893Z,99.99
2022-12-27T06:21:22.758Z,99.99
2022-12-27T06:26:22.693Z,99.99
2022-12-27T06:31:22.756Z,99.99
2022-12-27T06:36:22.606Z,99.99
2022-12-27T06:41:22.486Z,99.99
2022-12-27T06:46:22.489Z,99.99
2022-12-27T06:51:22.381Z,99.99
2022-12-27T06:56:22.323Z,99.99
2022-12-27T07:01:22.337Z,99.99
2022-12-27T07:06:22.194Z,99.99
2022-12-27T07:11:22.090Z,99.99
2022-12-27T07:16:22.179Z,99.99
2022-12-27T07:21:21.993Z,99.99
2022-12-27T07:26:21.897Z,99.99
2022-12-27T07:31:21.881Z,99.99
2022-12-27T07:36:21.801Z,99.99
2022-12-27T07:41:21.698Z,99.99
2022-12-27T07:46:21.702Z,99.99
2022-12-27T07:51:22.278Z,99.99
2022-12-27T07:56:25.765Z,99.99
2022-12-27T08:01:22.550Z,99.73
2022-12-27T08:06:21.402Z,99.52
2022-12-27T08:11:21.334Z,99.06
2022-12-27T08:16:21.339Z,98.60
2022-12-27T08:21:21.357Z,97.93
2022-12-27T08:26:21.153Z,97.72
2022-12-27T08:31:21.093Z,97.93
2022-12-27T08:41:21.948Z,95.06
2022-12-27T08:46:21.634Z,94.06
2022-12-27T08:51:32.775Z,90.53
2022-12-27T08:56:21.744Z,87.85
2022-12-27T09:01:20.727Z,84.16
2022-12-27T09:06:20.640Z,84.36
2022-12-27T09:11:20.529Z,88.28
2022-12-27T09:16:20.555Z,86.05
2022-12-27T09:21:20.405Z,80.12
2022-12-27T09:26:20.350Z,77.20
2022-12-27T09:31:21.242Z,73.98
2022-12-27T09:36:20.220Z,73.64
2022-12-27T09:42:11.789Z,72.48
2022-12-27T09:46:21.143Z,71.94
2022-12-27T09:51:19.993Z,71.56
2022-12-27T09:56:19.934Z,72.72
2022-12-27T10:01:20.005Z,75.69
2022-12-27T10:06:19.802Z,71.62
2022-12-27T10:11:19.726Z,71.12
2022-12-27T10:16:20.248Z,72.34
2022-12-27T10:21:19.584Z,75.42
2022-12-27T10:26:20.252Z,72.07
2022-12-27T10:31:19.503Z,68.16
2022-12-27T10:36:19.390Z,67.75
2022-12-27T10:41:20.253Z,68.39
2022-12-27T10:46:19.340Z,67.95
2022-12-27T10:51:19.191Z,67.68
2022-12-27T10:56:19.330Z,69.24
2022-12-27T11:01:19.215Z,68.22
2022-12-27T11:06:19.001Z,68.16
2022-12-27T11:11:18.927Z,65.54
2022-12-27T11:16:18.942Z,67.41
2022-12-27T11:21:27.325Z,69.17
2022-12-27T11:26:19.736Z,69.45
2022-12-27T11:31:19.610Z,68.42
2022-12-27T11:36:18.610Z,67.51
2022-12-27T11:41:20.880Z,69.14
2022-12-27T11:46:19.530Z,74.49
2022-12-27T11:51:18.350Z,76.86
2022-12-27T11:56:18.329Z,78.23
2022-12-27T12:01:18.934Z,78.33
2022-12-27T12:06:18.189Z,78.99
2022-12-27T12:11:18.103Z,78.47
2022-12-27T12:16:18.099Z,78.54
2022-12-27T12:21:17.976Z,78.33
2022-12-27T12:26:17.913Z,77.65
2022-12-27T12:31:17.903Z,79.64
2022-12-27T12:36:17.768Z,80.30
2022-12-27T12:41:17.695Z,80.71
2022-12-27T12:46:17.682Z,81.12
2022-12-27T12:51:17.581Z,81.26
2022-12-27T12:56:17.522Z,81.77
2022-12-27T13:01:17.496Z,81.88
2022-12-27T13:06:17.391Z,80.85
2022-12-27T13:11:17.307Z,81.92
2022-12-27T13:16:17.291Z,81.71
2022-12-27T13:21:17.181Z,82.91
2022-12-27T13:26:17.120Z,83.67
2022-12-27T13:31:17.089Z,83.56
2022-12-27T13:36:17.654Z,83.67
2022-12-27T13:41:16.869Z,83.05
2022-12-27T13:46:16.917Z,82.54
2022-12-27T13:51:16.772Z,82.47
2022-12-27T13:56:51.996Z,83.29
2022-12-27T14:01:17.740Z,82.37
2022-12-27T14:06:16.562Z,83.40
2022-12-27T14:11:16.497Z,83.44
2022-12-27T14:16:16.537Z,84.27
2022-12-27T14:21:16.358Z,84.30
2022-12-27T14:26:16.312Z,86.16
2022-12-27T14:31:16.276Z,86.05
2022-12-27T14:36:16.164Z,85.75
2022-12-27T14:41:16.127Z,86.16
2022-12-27T14:46:16.113Z,86.20
2022-12-27T14:56:16.898Z,86.10
2022-12-27T15:01:15.923Z,86.34
2022-12-27T15:06:15.794Z,86.76
2022-12-27T15:11:15.724Z,87.31
2022-12-27T15:16:16.069Z,87.00
2022-12-27T15:21:15.582Z,87.46
2022-12-27T15:26:15.487Z,87.87
2022-12-27T15:31:15.469Z,88.39
2022-12-27T15:36:15.377Z,88.59
2022-12-27T15:41:15.302Z,88.39
2022-12-27T15:46:15.292Z,88.70
2022-12-27T15:51:15.194Z,88.70
2022-12-27T15:56:15.098Z,89.11
2022-12-27T16:01:17.903Z,89.32
2022-12-27T16:06:15.983Z,89.25
2022-12-27T16:11:14.945Z,89.56
2022-12-27T16:16:14.876Z,89.04
2022-12-27T16:21:14.755Z,89.67
2022-12-27T16:26:14.695Z,88.80
2022-12-27T16:31:14.667Z,88.90
2022-12-27T16:36:15.061Z,89.11
2022-12-27T16:41:14.513Z,89.22
2022-12-27T16:46:14.486Z,88.90
2022-12-27T16:51:14.380Z,88.70
2022-12-27T16:56:14.296Z,88.18
2022-12-27T17:01:14.335Z,87.87
2022-12-27T17:11:15.081Z,88.01
2022-12-27T17:16:14.070Z,87.49
2022-12-27T17:21:13.983Z,87.66
2022-12-27T17:26:13.880Z,87.66
2022-12-27T17:31:13.855Z,87.04
2022-12-27T17:36:13.748Z,87.25
2022-12-27T17:41:16.056Z,87.91
2022-12-27T17:46:13.666Z,88.32
2022-12-27T17:51:13.548Z,88.53
2022-12-27T17:56:13.472Z,88.88
2022-12-27T18:01:13.536Z,88.78
2022-12-27T18:06:13.345Z,89.29
2022-12-27T18:11:13.296Z,88.98
2022-12-27T18:16:13.262Z,88.74
2022-12-27T18:21:13.154Z,88.53
2022-12-27T18:26:13.759Z,88.32
2022-12-27T18:31:13.073Z,89.09
2022-12-27T18:36:12.936Z,89.15
2022-12-27T18:41:12.871Z,88.90
2022-12-27T18:46:12.865Z,88.70
2022-12-27T18:51:12.756Z,88.59
2022-12-27T18:56:12.652Z,88.84
2022-12-27T19:01:12.768Z,89.25
2022-12-27T19:06:12.545Z,89.40
2022-12-27T19:11:12.474Z,89.81
2022-12-27T19:16:12.456Z,89.81
2022-12-27T19:21:12.935Z,90.12
2022-12-27T19:26:12.272Z,90.12
2022-12-27T19:31:12.244Z,90.44
2022-12-27T19:36:12.137Z,90.33
2022-12-27T19:41:12.091Z,90.33
2022-12-27T19:46:12.058Z,89.71
2022-12-27T19:51:11.945Z,88.94
2022-12-27T19:56:11.885Z,88.74
2022-12-27T20:01:11.848Z,88.74
2022-12-27T20:06:22.983Z,88.84
2022-12-27T20:11:12.698Z,88.88
2022-12-27T20:16:11.592Z,88.88
2022-12-27T20:21:11.557Z,89.40
2022-12-27T20:26:11.455Z,89.50
2022-12-27T20:31:13.324Z,90.06
2022-12-27T20:36:11.333Z,90.58
2022-12-27T20:41:11.307Z,90.72
2022-12-27T20:46:11.229Z,90.83
2022-12-27T20:51:11.158Z,91.03
2022-12-27T20:56:11.061Z,91.14
2022-12-27T21:01:11.227Z,91.14
2022-12-27T21:06:11.072Z,91.14
2022-12-27T21:11:10.864Z,91.45
2022-12-27T21:16:10.801Z,91.66
2022-12-27T21:21:10.750Z,91.55
2022-12-27T21:26:10.941Z,91.35
2022-12-27T21:31:10.702Z,91.55
2022-12-27T21:36:10.559Z,91.91
2022-12-27T21:41:10.499Z,92.22
2022-12-27T21:46:10.406Z,92.01
2022-12-27T21:51:10.341Z,92.22
2022-12-27T21:56:10.332Z,92.18
2022-12-27T22:01:10.278Z,91.97
2022-12-27T22:06:10.149Z,91.51
2022-12-27T22:11:10.182Z,91.51
2022-12-27T22:16:10.042Z,91.30
2022-12-27T22:21:09.953Z,91.20
2022-12-27T22:26:09.905Z,91.09
2022-12-27T22:31:09.851Z,91.51
2022-12-27T22:36:09.718Z,91.61
2022-12-27T22:41:09.769Z,91.51
2022-12-27T22:46:09.605Z,91.09
2022-12-27T22:51:09.562Z,91.36
2022-12-27T22:56:09.475Z,91.05
2022-12-27T23:01:09.386Z,90.64
2022-12-27T23:06:09.329Z,91.16
2022-12-27T23:11:09.316Z,90.74
2022-12-27T23:16:09.224Z,90.53
2022-12-27T23:21:20.190Z,91.26
2022-12-27T23:26:10.059Z,91.57
2022-12-27T23:31:09.048Z,91.78
2022-12-27T23:36:08.927Z,92.24
2022-12-27T23:41:08.944Z,92.34
2022-12-27T23:46:08.848Z,92.44
2022-12-27T23:51:08.738Z,92.76
2022-12-27T23:56:08.742Z,92.85
